createdAt,value
2023-05-05T00:01:34.303Z,18.60
2023-05-05T00:04:13.985Z,19.70
2023-05-05T00:06:49.983Z,20.25
2023-05-05T00:09:33.764Z,20.00
2023-05-05T00:12:12.698Z,20.98
2023-05-05T00:14:47.526Z,22.85
2023-05-05T00:17:22.633Z,24.35
2023-05-05T00:20:01.101Z,25.13
2023-05-05T00:22:34.876Z,25.20
2023-05-05T00:25:34.596Z,22.60
2023-05-05T00:28:07.936Z,22.88
2023-05-05T00:30:51.030Z,22.75
2023-05-05T00:33:31.135Z,22.67
2023-05-05T00:36:05.689Z,23.02
2023-05-05T00:38:49.898Z,24.02
2023-05-05T00:41:36.814Z,23.95
2023-05-05T00:44:15.006Z,23.08
2023-05-05T00:46:53.071Z,25.30
2023-05-05T00:49:28.503Z,24.08
2023-05-05T00:52:05.731Z,22.88
2023-05-05T00:54:41.317Z,22.90
2023-05-05T00:57:27.645Z,24.73
2023-05-05T01:00:08.884Z,26.08
2023-05-05T01:02:42.576Z,25.13
2023-05-05T01:05:35.167Z,25.27
2023-05-05T01:08:33.739Z,25.52
2023-05-05T01:11:20.804Z,26.45
2023-05-05T01:14:18.235Z,26.67
2023-05-05T01:17:09.314Z,26.33
2023-05-05T01:20:20.846Z,24.75
2023-05-05T01:23:12.809Z,27.52
2023-05-05T01:26:12.864Z,25.15
2023-05-05T01:29:09.708Z,24.10
2023-05-05T01:32:11.177Z,23.85
2023-05-05T01:35:01.604Z,26.63
2023-05-05T01:37:49.123Z,25.15
2023-05-05T01:40:25.266Z,24.92
2023-05-05T01:43:03.466Z,23.65
2023-05-05T01:45:50.210Z,25.03
2023-05-05T01:48:34.473Z,25.50
2023-05-05T01:51:22.661Z,26.42
2023-05-05T01:54:01.631Z,24.80
2023-05-05T01:56:44.810Z,25.52
2023-05-05T01:59:24.194Z,25.50
2023-05-05T02:02:22.340Z,24.92
2023-05-05T02:04:59.003Z,26.40
2023-05-05T02:07:51.236Z,25.45
2023-05-05T02:10:29.651Z,23.92
2023-05-05T02:13:05.712Z,25.70
2023-05-05T02:15:47.165Z,25.35
2023-05-05T02:18:25.934Z,25.15
2023-05-05T02:21:07.827Z,24.73
2023-05-05T02:23:46.625Z,24.50
2023-05-05T02:26:28.229Z,25.92
2023-05-05T02:29:09.487Z,26.33
2023-05-05T02:31:57.913Z,25.98
2023-05-05T02:34:43.222Z,26.92
2023-05-05T02:37:30.286Z,28.10
2023-05-05T02:40:12.288Z,28.15
2023-05-05T02:42:50.691Z,27.00
2023-05-05T02:45:27.389Z,27.95
2023-05-05T02:48:08.490Z,27.65
2023-05-05T02:50:47.484Z,26.98
2023-05-05T02:53:32.770Z,28.33
2023-05-05T02:56:29.826Z,26.75
2023-05-05T02:59:16.544Z,31.25
2023-05-05T03:02:09.368Z,30.90
2023-05-05T03:04:46.810Z,30.00
2023-05-05T03:07:30.145Z,28.88
2023-05-05T03:10:18.620Z,35.17
2023-05-05T03:13:00.973Z,28.05
2023-05-05T03:16:00.299Z,27.95
2023-05-05T03:18:40.579Z,28.30
2023-05-05T03:21:23.099Z,27.70
2023-05-05T03:24:03.586Z,26.98
2023-05-05T03:26:46.458Z,28.98
2023-05-05T03:29:27.740Z,28.75
2023-05-05T03:32:19.277Z,27.20
2023-05-05T03:35:02.945Z,29.48
2023-05-05T03:37:49.816Z,29.45
2023-05-05T03:40:36.306Z,29.55
2023-05-05T03:43:15.568Z,29.50
2023-05-05T03:45:49.923Z,29.17
2023-05-05T03:48:32.752Z,29.15
2023-05-05T03:51:19.233Z,28.50
2023-05-05T03:53:58.264Z,30.90
2023-05-05T03:56:34.746Z,31.30
2023-05-05T03:59:21.077Z,32.53
2023-05-05T04:02:00.386Z,32.90
2023-05-05T04:04:42.264Z,32.70
2023-05-05T04:07:16.923Z,33.55
2023-05-05T04:09:49.946Z,34.92
2023-05-05T04:12:29.031Z,35.30
2023-05-05T04:15:18.382Z,34.55
2023-05-05T04:18:03.804Z,34.67
2023-05-05T04:20:45.632Z,36.08
2023-05-05T04:23:24.966Z,32.97
2023-05-05T04:26:00.358Z,34.42
2023-05-05T04:28:37.224Z,36.33
2023-05-05T04:31:14.214Z,34.08
2023-05-05T04:33:51.878Z,37.03
2023-05-05T04:36:26.655Z,37.55
2023-05-05T04:39:04.968Z,37.00
2023-05-05T04:41:59.441Z,37.58
2023-05-05T04:44:37.145Z,37.00
2023-05-05T04:47:18.245Z,36.83
2023-05-05T04:49:54.130Z,37.20
2023-05-05T04:52:39.079Z,37.90
2023-05-05T04:55:17.643Z,37.95
2023-05-05T04:57:55.115Z,37.78
2023-05-05T05:00:32.171Z,37.00
2023-05-05T05:03:12.509Z,36.55
2023-05-05T05:05:48.536Z,37.45
2023-05-05T05:08:25.624Z,36.78
2023-05-05T05:11:05.922Z,36.42
2023-05-05T05:13:44.939Z,37.58
2023-05-05T05:16:16.306Z,37.97
2023-05-05T05:18:56.541Z,37.35
2023-05-05T05:21:33.437Z,37.80
2023-05-05T05:24:07.911Z,37.58
2023-05-05T05:26:43.316Z,35.55
2023-05-05T05:29:18.103Z,37.13
2023-05-05T05:31:53.299Z,36.58
2023-05-05T05:34:37.991Z,37.58
2023-05-05T05:37:12.443Z,34.58
2023-05-05T05:39:52.066Z,34.63
2023-05-05T05:42:31.859Z,34.83
2023-05-05T05:45:06.595Z,36.95
2023-05-05T05:47:40.079Z,36.47
2023-05-05T05:50:29.548Z,36.28
2023-05-05T05:53:13.115Z,36.17
2023-05-05T05:55:52.245Z,35.42
2023-05-05T05:58:31.780Z,34.28
2023-05-05T06:01:07.858Z,36.85
2023-05-05T06:03:49.098Z,37.00
2023-05-05T06:06:27.183Z,36.50
2023-05-05T06:09:03.860Z,33.85
2023-05-05T06:11:44.045Z,34.10
2023-05-05T06:14:20.168Z,33.53
2023-05-05T06:16:58.173Z,34.45
2023-05-05T06:19:46.578Z,32.05
2023-05-05T06:22:22.032Z,34.30
2023-05-05T06:24:57.748Z,34.22
2023-05-05T06:27:40.068Z,35.35
2023-05-05T06:30:29.565Z,35.65
2023-05-05T06:33:01.188Z,35.38
2023-05-05T06:35:40.268Z,34.15
2023-05-05T06:38:18.166Z,35.25
2023-05-05T06:40:58.887Z,32.72
2023-05-05T06:43:33.600Z,31.13
2023-05-05T06:46:15.394Z,32.33
2023-05-05T06:48:51.596Z,30.38
2023-05-05T06:51:25.716Z,32.13
2023-05-05T06:54:07.108Z,32.00
2023-05-05T06:56:48.238Z,32.15
2023-05-05T07:01:59.083Z,30.23
2023-05-05T07:04:40.551Z,31.85
2023-05-05T07:07:14.070Z,32.67
2023-05-05T07:09:57.154Z,32.10
2023-05-05T07:12:40.147Z,29.70
2023-05-05T07:15:29.296Z,28.20
2023-05-05T07:18:06.885Z,28.75
2023-05-05T07:20:44.557Z,30.00
2023-05-05T07:23:23.403Z,31.38
2023-05-05T07:26:05.186Z,28.60
2023-05-05T07:28:45.685Z,28.45
2023-05-05T07:31:30.530Z,27.48
2023-05-05T07:34:19.421Z,25.70
2023-05-05T07:36:57.970Z,26.77
2023-05-05T07:39:40.816Z,27.00
2023-05-05T07:42:23.208Z,23.75
2023-05-05T07:45:01.252Z,21.55
2023-05-05T07:47:41.908Z,19.35
2023-05-05T07:50:16.808Z,16.73
2023-05-05T07:52:54.001Z,20.80
2023-05-05T07:55:43.895Z,20.85
2023-05-05T07:58:47.609Z,19.48
2023-05-05T08:01:22.219Z,15.98
2023-05-05T08:04:13.410Z,19.83
2023-05-05T08:06:57.294Z,19.90
2023-05-05T08:09:40.727Z,13.45
2023-05-05T08:12:22.410Z,14.75
2023-05-05T08:15:01.463Z,13.48
2023-05-05T08:17:51.524Z,12.38
2023-05-05T08:20:32.959Z,12.40
2023-05-05T08:23:07.572Z,9.30
2023-05-05T08:25:50.421Z,13.45
2023-05-05T08:28:29.143Z,13.57
2023-05-05T08:31:18.819Z,12.93
2023-05-05T08:33:55.753Z,13.60
2023-05-05T08:36:29.388Z,13.13
2023-05-05T08:39:14.270Z,11.93
2023-05-05T08:41:48.143Z,11.10
2023-05-05T08:44:29.828Z,9.40
2023-05-05T08:47:14.325Z,11.57
2023-05-05T08:50:00.335Z,13.38
2023-05-05T08:52:42.171Z,13.20
2023-05-05T08:55:22.673Z,11.88
2023-05-05T08:58:04.804Z,11.85
2023-05-05T09:00:42.975Z,13.48
2023-05-05T09:03:18.879Z,12.05
2023-05-05T09:05:55.666Z,8.07
2023-05-05T09:08:46.928Z,7.82
2023-05-05T09:11:24.200Z,9.88
2023-05-05T09:16:47.388Z,7.07
2023-05-05T09:19:33.441Z,7.40
2023-05-05T09:22:09.000Z,6.63
2023-05-05T09:25:07.480Z,6.63
2023-05-05T09:27:48.054Z,4.82
2023-05-05T09:30:33.158Z,4.28
2023-05-05T09:33:14.412Z,5.45
2023-05-05T09:36:08.978Z,5.18
2023-05-05T09:38:49.121Z,5.43
2023-05-05T09:41:48.638Z,5.32
2023-05-05T09:44:42.813Z,5.60
2023-05-05T09:47:28.552Z,5.63
2023-05-05T09:50:08.096Z,5.80
2023-05-05T09:52:41.393Z,7.43
2023-05-05T09:55:31.790Z,6.18
2023-05-05T09:58:30.603Z,6.15
2023-05-05T10:01:27.110Z,6.13
2023-05-05T10:03:58.391Z,6.97
2023-05-05T10:06:47.841Z,6.00
2023-05-05T10:09:38.259Z,6.30
2023-05-05T10:12:20.452Z,5.82
2023-05-05T10:15:01.163Z,5.90
2023-05-05T10:17:53.883Z,7.07
2023-05-05T10:20:41.822Z,6.35
2023-05-05T10:23:26.463Z,6.35
2023-05-05T10:26:11.416Z,6.85
2023-05-05T10:28:49.998Z,6.78
2023-05-05T10:31:41.773Z,6.13
2023-05-05T10:34:24.737Z,6.90
2023-05-05T10:37:19.287Z,6.72
2023-05-05T10:39:59.345Z,6.00
2023-05-05T10:42:35.342Z,6.30
2023-05-05T10:45:27.148Z,6.20
2023-05-05T10:48:04.607Z,5.97
2023-05-05T10:50:53.726Z,6.65
2023-05-05T10:53:43.843Z,5.78
2023-05-05T10:56:33.710Z,6.80
2023-05-05T10:59:31.734Z,6.10
2023-05-05T11:02:05.040Z,6.10
2023-05-05T11:04:38.145Z,4.97
2023-05-05T11:07:35.588Z,6.57
2023-05-05T11:10:08.143Z,6.20
2023-05-05T11:13:10.346Z,6.82
2023-05-05T11:15:48.591Z,5.57
2023-05-05T11:18:44.771Z,5.20
2023-05-05T11:21:29.248Z,5.43
2023-05-05T11:24:34.806Z,5.30
2023-05-05T11:27:13.350Z,5.68
2023-05-05T11:30:17.110Z,5.28
2023-05-05T11:33:29.817Z,5.25
2023-05-05T11:36:06.021Z,3.75
2023-05-05T11:38:57.124Z,5.05
2023-05-05T11:42:24.448Z,5.40
2023-05-05T11:45:08.540Z,6.13
2023-05-05T11:47:50.414Z,6.30
2023-05-05T11:50:31.507Z,5.57
2023-05-05T11:53:11.946Z,5.68
2023-05-05T11:55:57.404Z,5.47
2023-05-05T11:58:33.233Z,5.97
2023-05-05T12:01:17.590Z,5.55
2023-05-05T12:03:58.789Z,5.68
2023-05-05T12:06:43.405Z,5.93
2023-05-05T12:09:19.228Z,5.90
2023-05-05T12:12:12.316Z,5.60
2023-05-05T12:14:58.929Z,5.50
2023-05-05T12:17:42.911Z,5.20
2023-05-05T12:20:19.196Z,4.85
2023-05-05T12:22:57.044Z,4.53
2023-05-05T12:25:43.304Z,5.80
2023-05-05T12:28:23.901Z,4.93
2023-05-05T12:31:09.256Z,4.60
2023-05-05T12:33:48.401Z,5.20
2023-05-05T12:36:38.609Z,5.82
2023-05-05T12:39:16.700Z,5.78
2023-05-05T12:41:59.673Z,4.85
2023-05-05T12:44:50.818Z,5.60
2023-05-05T12:47:35.474Z,5.80
2023-05-05T12:50:20.299Z,5.57
2023-05-05T12:53:17.892Z,5.45
2023-05-05T12:56:00.721Z,5.03
2023-05-05T12:59:04.593Z,5.40
2023-05-05T13:01:56.404Z,5.93
2023-05-05T13:04:38.575Z,5.90
2023-05-05T13:07:20.963Z,5.53
2023-05-05T13:09:56.401Z,4.93
2023-05-05T13:12:32.581Z,4.88
2023-05-05T13:15:11.425Z,4.75
2023-05-05T13:17:51.455Z,5.00
2023-05-05T13:20:41.248Z,4.95
2023-05-05T13:23:18.877Z,4.83
2023-05-05T13:26:02.474Z,5.00
2023-05-05T13:28:40.693Z,4.47
2023-05-05T13:31:15.153Z,5.45
2023-05-05T13:33:47.306Z,5.53
2023-05-05T13:36:35.116Z,5.50
2023-05-05T13:39:13.742Z,5.38
2023-05-05T13:41:56.306Z,5.13
2023-05-05T13:44:42.884Z,5.43
2023-05-05T13:47:23.224Z,5.55
2023-05-05T13:50:01.229Z,5.07
2023-05-05T13:52:37.811Z,5.03
2023-05-05T13:55:15.175Z,4.75
2023-05-05T13:57:52.768Z,4.82
2023-05-05T14:03:11.690Z,4.65
2023-05-05T14:05:52.418Z,4.65
2023-05-05T14:08:35.238Z,4.35
2023-05-05T14:11:07.736Z,5.35
2023-05-05T14:13:48.413Z,4.65
2023-05-05T14:16:34.852Z,4.00
2023-05-05T14:19:19.297Z,4.60
2023-05-05T14:21:57.506Z,3.83
2023-05-05T14:24:36.871Z,4.18
2023-05-05T14:27:14.365Z,3.80
2023-05-05T14:29:50.365Z,3.85
2023-05-05T14:32:28.469Z,4.03
2023-05-05T14:35:09.747Z,3.78
2023-05-05T14:37:47.642Z,3.63
2023-05-05T14:40:21.643Z,4.05
2023-05-05T14:43:01.508Z,3.70
2023-05-05T14:45:35.811Z,4.30
2023-05-05T14:48:13.668Z,3.65
2023-05-05T14:50:50.211Z,3.80
2023-05-05T14:53:29.440Z,4.30
2023-05-05T14:56:19.090Z,4.20
2023-05-05T14:58:58.023Z,4.13
2023-05-05T15:01:44.856Z,5.03
2023-05-05T15:04:35.306Z,4.32
2023-05-05T15:07:06.987Z,4.15
2023-05-05T15:09:44.289Z,4.10
2023-05-05T15:12:26.183Z,4.28
2023-05-05T15:15:00.330Z,4.40
2023-05-05T15:17:41.467Z,4.07
2023-05-05T15:20:18.487Z,4.43
2023-05-05T15:22:58.343Z,4.90
2023-05-05T15:25:33.069Z,4.00
2023-05-05T15:28:07.002Z,4.32
2023-05-05T15:30:45.902Z,3.80
2023-05-05T15:33:31.592Z,3.93
2023-05-05T15:36:07.401Z,4.60
2023-05-05T15:38:54.892Z,3.92
2023-05-05T15:41:32.657Z,4.05
2023-05-05T15:44:08.594Z,4.18
2023-05-05T15:46:42.590Z,3.92
2023-05-05T15:49:23.187Z,4.03
2023-05-05T15:52:07.879Z,3.75
2023-05-05T15:54:56.318Z,4.22
2023-05-05T15:57:36.585Z,4.30
2023-05-05T16:00:17.570Z,3.63
2023-05-05T16:02:50.905Z,4.47
2023-05-05T16:05:29.716Z,3.67
2023-05-05T16:08:16.541Z,5.55
2023-05-05T16:10:52.670Z,4.47
2023-05-05T16:13:34.893Z,3.70
2023-05-05T16:16:23.926Z,3.83
2023-05-05T16:19:12.312Z,3.55
2023-05-05T16:21:48.065Z,3.80
2023-05-05T16:24:26.570Z,3.42
2023-05-05T16:27:12.260Z,3.88
2023-05-05T16:29:46.656Z,4.57
2023-05-05T16:32:34.255Z,4.32
2023-05-05T16:35:12.423Z,3.70
2023-05-05T16:37:57.897Z,3.80
2023-05-05T16:40:34.796Z,4.00
2023-05-05T16:43:12.786Z,3.97
2023-05-05T16:45:44.883Z,4.40
2023-05-05T16:48:32.990Z,4.32
2023-05-05T16:51:09.560Z,3.53
2023-05-05T16:53:43.583Z,4.55
2023-05-05T16:56:22.799Z,3.88
2023-05-05T16:58:57.547Z,3.60
2023-05-05T17:01:35.670Z,3.78
2023-05-05T17:04:14.022Z,4.50
2023-05-05T17:06:53.232Z,3.70
2023-05-05T17:09:29.876Z,4.70
2023-05-05T17:12:12.826Z,4.63
2023-05-05T17:14:54.935Z,4.15
2023-05-05T17:17:28.825Z,4.85
2023-05-05T17:20:03.371Z,4.80
2023-05-05T17:22:43.573Z,4.45
2023-05-05T17:25:17.987Z,4.63
2023-05-05T17:28:04.699Z,4.30
2023-05-05T17:30:43.343Z,4.28
2023-05-05T17:33:32.070Z,4.78
2023-05-05T17:36:12.231Z,4.88
2023-05-05T17:38:51.466Z,4.18
2023-05-05T17:41:28.734Z,5.22
2023-05-05T17:44:05.955Z,4.90
2023-05-05T17:46:48.528Z,5.55
2023-05-05T17:49:29.174Z,5.70
2023-05-05T17:52:09.894Z,5.93
2023-05-05T17:54:49.832Z,6.32
2023-05-05T17:57:33.575Z,6.07
2023-05-05T18:00:16.226Z,6.32
2023-05-05T18:02:48.795Z,6.53
2023-05-05T18:05:21.261Z,5.90
2023-05-05T18:07:55.367Z,6.28
2023-05-05T18:10:36.089Z,5.88
2023-05-05T18:13:21.890Z,6.38
2023-05-05T18:16:07.760Z,7.10
2023-05-05T18:18:46.002Z,7.07
2023-05-05T18:21:21.875Z,7.53
2023-05-05T18:24:04.635Z,7.55
2023-05-05T18:29:17.349Z,7.57
2023-05-05T18:31:54.994Z,7.63
2023-05-05T18:34:35.629Z,8.07
2023-05-05T18:37:10.628Z,8.60
2023-05-05T18:39:51.102Z,7.72
2023-05-05T18:42:27.498Z,8.60
2023-05-05T18:45:08.396Z,7.65
2023-05-05T18:47:53.998Z,7.95
2023-05-05T18:50:32.954Z,8.65
2023-05-05T18:53:18.922Z,10.68
2023-05-05T18:56:01.371Z,9.82
2023-05-05T18:58:41.664Z,10.65
2023-05-05T19:01:24.103Z,9.30
2023-05-05T19:04:00.525Z,9.70
2023-05-05T19:06:36.806Z,9.85
2023-05-05T19:09:15.749Z,9.30
2023-05-05T19:11:56.319Z,8.50
2023-05-05T19:14:27.364Z,9.20
2023-05-05T19:17:11.020Z,7.35
2023-05-05T19:19:47.565Z,6.68
2023-05-05T19:22:33.588Z,6.07
2023-05-05T19:25:14.827Z,8.60
2023-05-05T19:28:02.405Z,8.65
2023-05-05T19:30:44.429Z,9.18
2023-05-05T19:33:19.555Z,9.13
2023-05-05T19:35:59.974Z,8.02
2023-05-05T19:38:44.991Z,8.85
2023-05-05T19:41:27.601Z,8.48
2023-05-05T19:44:07.162Z,7.88
2023-05-05T19:46:44.105Z,7.75
2023-05-05T19:49:23.260Z,7.57
2023-05-05T19:52:04.026Z,7.50
2023-05-05T19:54:46.040Z,7.65
2023-05-05T19:57:22.776Z,6.82
2023-05-05T20:00:00.942Z,7.07
2023-05-05T20:02:43.256Z,7.00
2023-05-05T20:05:26.715Z,6.85
2023-05-05T20:08:07.435Z,6.68
2023-05-05T20:10:47.274Z,6.70
2023-05-05T20:13:36.800Z,6.80
2023-05-05T20:16:27.243Z,8.02
2023-05-05T20:19:02.728Z,6.97
2023-05-05T20:21:43.832Z,8.00
2023-05-05T20:24:21.185Z,7.80
2023-05-05T20:27:14.435Z,7.78
2023-05-05T20:29:52.729Z,8.15
2023-05-05T20:32:27.451Z,8.60
2023-05-05T20:35:08.653Z,8.68
2023-05-05T20:37:40.819Z,8.68
2023-05-05T20:40:17.268Z,7.82
2023-05-05T20:42:52.973Z,8.23
2023-05-05T20:45:31.717Z,7.90
2023-05-05T20:48:08.000Z,8.00
2023-05-05T20:50:46.413Z,7.90
2023-05-05T20:53:22.972Z,9.45
2023-05-05T20:56:06.427Z,9.55
2023-05-05T20:58:45.500Z,10.25
2023-05-05T21:01:21.275Z,9.55
2023-05-05T21:04:01.842Z,9.70
2023-05-05T21:06:43.056Z,8.57
2023-05-05T21:09:23.193Z,9.07
2023-05-05T21:12:00.360Z,8.48
2023-05-05T21:14:37.006Z,9.32
2023-05-05T21:17:21.067Z,9.05
2023-05-05T21:19:55.737Z,8.77
2023-05-05T21:22:33.199Z,8.57
2023-05-05T21:25:18.722Z,8.57
2023-05-05T21:28:03.885Z,9.32
2023-05-05T21:30:39.743Z,9.38
2023-05-05T21:33:26.208Z,9.48
2023-05-05T21:36:02.726Z,9.40
2023-05-05T21:38:39.325Z,9.65
2023-05-05T21:41:15.520Z,9.77
2023-05-05T21:43:59.549Z,10.15
2023-05-05T21:46:34.191Z,9.27
2023-05-05T21:49:19.499Z,9.80
2023-05-05T21:52:00.672Z,8.90
2023-05-05T21:54:39.241Z,10.15
2023-05-05T21:57:12.781Z,10.40
2023-05-05T21:59:49.073Z,10.82
2023-05-05T22:02:26.942Z,10.68
2023-05-05T22:05:01.691Z,11.73
2023-05-05T22:07:35.304Z,11.40
2023-05-05T22:10:12.026Z,10.02
2023-05-05T22:12:52.355Z,10.63
2023-05-05T22:15:38.977Z,11.15
2023-05-05T22:18:18.850Z,11.65
2023-05-05T22:21:06.757Z,12.07
2023-05-05T22:23:48.574Z,12.32
2023-05-05T22:26:27.457Z,11.15
2023-05-05T22:29:04.778Z,11.60
2023-05-05T22:31:39.833Z,12.02
2023-05-05T22:34:18.553Z,11.15
2023-05-05T22:36:55.643Z,10.80
2023-05-05T22:39:36.895Z,10.55
2023-05-05T22:42:14.235Z,10.52
2023-05-05T22:44:49.493Z,10.75
2023-05-05T22:47:34.589Z,10.68
2023-05-05T22:50:11.503Z,11.75
2023-05-05T22:52:49.942Z,12.07
2023-05-05T22:55:25.197Z,11.98
2023-05-05T22:58:01.413Z,11.68
2023-05-05T23:00:40.990Z,12.80
2023-05-05T23:03:17.840Z,11.48
2023-05-05T23:06:02.768Z,11.02
2023-05-05T23:08:50.629Z,12.27
2023-05-05T23:11:25.364Z,12.47
2023-05-05T23:14:17.196Z,10.95
2023-05-05T23:16:54.002Z,11.77
2023-05-05T23:19:38.291Z,11.55
2023-05-05T23:22:13.937Z,11.85
2023-05-05T23:24:49.916Z,12.10
2023-05-05T23:27:26.306Z,11.68
2023-05-05T23:30:11.177Z,11.05
2023-05-05T23:33:01.391Z,11.50
2023-05-05T23:35:46.567Z,13.23
2023-05-05T23:38:20.775Z,12.13
2023-05-05T23:41:00.377Z,12.73
2023-05-05T23:43:33.273Z,14.52
2023-05-05T23:46:27.708Z,14.30
2023-05-05T23:49:10.651Z,14.10
2023-05-05T23:51:56.692Z,13.93
2023-05-05T23:54:34.188Z,14.40
2023-05-05T23:57:15.037Z,13.68
2023-05-05T23:59:49.791Z,12.40
